CheckWX is a tool to help pilots better visualize weather data.  It is not intended as a substitute for an official pre-flight weather briefing.

21:02:57 UTC

CYWH METAR
Victoria Harbour Seaplane Base
Victoria, Canada
Current

1 hour ago

CYWH 232000Z 22007KT 15SM FEW035 SCT240 12/10 A2998 RMK CU1CI3 SLP155
Observed
May-23 @ 20:00 UTC
Wind
  • 220° at 7 KTS
Visibility
15 SM
Flight Rules
VFR
Cloud Levels
  • Few at 3,500' AGL
  • Scattered at 24,000' AGL
Temperature
12°C / 54°F
Dewpoint
10°C / 50°F
Humidity
88%
Altimeter
29.98" Hg
Pressure
1015.22 hPa
Previous

2 hours ago

CYWH 231900Z 23006KT 15SM FEW035 SCT240 12/10 A3000 RMK CU1CI3 CU TR SLP162
Observed
May-23 @ 19:00 UTC
Wind
  • 230° at 6 KTS
Visibility
15 SM
Flight Rules
VFR
Cloud Levels
  • Few at 3,500' AGL
  • Scattered at 24,000' AGL
Temperature
12°C / 54°F
Dewpoint
10°C / 50°F
Humidity
88%
Altimeter
30" Hg
Pressure
1015.92 hPa
Previous

3 hours ago

CYWH 231800Z 22005KT 15SM FEW035 FEW240 13/10 A3002 RMK CU1CI2 CU TR SLP167
Observed
May-23 @ 18:00 UTC
Wind
  • 220° at 5 KTS
Visibility
15 SM
Flight Rules
VFR
Cloud Levels
  • Few at 3,500' AGL
  • Few at 24,000' AGL
Temperature
13°C / 55°F
Dewpoint
10°C / 50°F
Humidity
82%
Altimeter
30.02" Hg
Pressure
1016.62 hPa